createdAt,value
2018-06-11T00:00:57.750Z,0
2018-06-11T00:01:58.313Z,0
2018-06-11T00:02:58.855Z,0
2018-06-11T00:03:59.406Z,0
2018-06-11T00:04:59.956Z,0
2018-06-11T00:06:00.502Z,0
2018-06-11T00:07:01.051Z,0
2018-06-11T00:08:01.601Z,0
2018-06-11T00:09:02.154Z,0
2018-06-11T00:10:02.707Z,0
2018-06-11T00:11:03.256Z,0
2018-06-11T00:12:03.809Z,0
2018-06-11T00:13:04.358Z,0
2018-06-11T00:14:04.903Z,0
2018-06-11T00:15:05.453Z,0
2018-06-11T00:16:06.003Z,0
2018-06-11T00:17:06.557Z,0
2018-06-11T00:18:07.106Z,0
2018-06-11T00:19:07.657Z,0
2018-06-11T00:20:08.205Z,0
2018-06-11T00:21:08.757Z,0
2018-06-11T00:22:09.314Z,0
2018-06-11T00:23:09.863Z,0
2018-06-11T00:24:10.414Z,0
2018-06-11T00:25:10.965Z,0
2018-06-11T00:26:11.516Z,0
2018-06-11T00:27:12.067Z,0
2018-06-11T00:28:12.619Z,0
2018-06-11T00:29:13.173Z,0
2018-06-11T00:30:13.723Z,0
2018-06-11T00:31:14.268Z,0
2018-06-11T00:32:14.824Z,0
2018-06-11T00:33:15.374Z,0
2018-06-11T00:34:15.929Z,0
2018-06-11T00:35:16.478Z,0
2018-06-11T00:36:17.031Z,0
2018-06-11T00:37:17.584Z,0
2018-06-11T00:38:18.132Z,0
2018-06-11T00:39:18.682Z,0
2018-06-11T00:40:19.239Z,0
2018-06-11T00:41:19.785Z,0
2018-06-11T00:42:20.334Z,0
2018-06-11T00:43:20.885Z,0
2018-06-11T00:44:21.438Z,0
2018-06-11T00:45:21.983Z,0
2018-06-11T00:46:22.536Z,0
2018-06-11T00:47:23.287Z,0
2018-06-11T00:48:23.838Z,0
2018-06-11T00:49:24.385Z,0
2018-06-11T00:50:24.936Z,0
2018-06-11T00:51:25.486Z,0
2018-06-11T00:52:26.039Z,0
2018-06-11T00:53:26.585Z,0
2018-06-11T00:54:27.136Z,0
2018-06-11T00:55:27.688Z,0
2018-06-11T00:56:28.238Z,0
2018-06-11T00:57:28.793Z,0
2018-06-11T00:58:29.333Z,0
2018-06-11T00:59:29.882Z,0
2018-06-11T01:00:30.433Z,0
2018-06-11T01:01:30.981Z,0
2018-06-11T01:02:31.534Z,0
2018-06-11T01:03:32.084Z,0
2018-06-11T01:04:32.637Z,0
2018-06-11T01:05:33.189Z,0
2018-06-11T01:06:33.744Z,0
2018-06-11T01:07:34.288Z,0
2018-06-11T01:08:34.839Z,0
2018-06-11T01:09:35.388Z,0
2018-06-11T01:10:35.940Z,0
2018-06-11T01:11:36.492Z,0
2018-06-11T01:12:37.038Z,0
2018-06-11T01:13:37.592Z,0
2018-06-11T01:14:38.139Z,0
2018-06-11T01:15:38.689Z,0
2018-06-11T01:16:39.243Z,0
2018-06-11T01:17:39.793Z,0
2018-06-11T01:18:40.343Z,0
2018-06-11T01:19:40.891Z,0
2018-06-11T01:20:41.440Z,0
2018-06-11T01:21:41.987Z,0
2018-06-11T01:22:42.526Z,0
2018-06-11T01:23:43.067Z,0
2018-06-11T01:24:43.618Z,0
2018-06-11T01:25:44.170Z,0
2018-06-11T01:26:44.720Z,0
2018-06-11T01:27:45.266Z,0
2018-06-11T01:28:45.820Z,0
2018-06-11T01:29:46.369Z,0
2018-06-11T01:30:46.924Z,0
2018-06-11T01:31:47.466Z,0
2018-06-11T01:32:48.021Z,0
2018-06-11T01:33:48.573Z,0
2018-06-11T01:34:49.127Z,0
2018-06-11T01:35:49.679Z,0
2018-06-11T01:36:50.228Z,0
2018-06-11T01:37:50.777Z,0
2018-06-11T01:38:51.326Z,0
2018-06-11T01:39:51.878Z,0
2018-06-11T01:40:52.428Z,0
2018-06-11T01:41:52.975Z,0
2018-06-11T01:42:53.525Z,0
2018-06-11T01:43:54.076Z,0
2018-06-11T01:44:54.629Z,0
2018-06-11T01:45:55.181Z,0
2018-06-11T01:46:55.729Z,0
2018-06-11T01:47:56.281Z,0
2018-06-11T01:48:56.832Z,0
2018-06-11T01:49:57.387Z,0
2018-06-11T01:50:57.938Z,0
2018-06-11T01:51:58.484Z,0
2018-06-11T01:52:59.036Z,0
2018-06-11T01:53:59.586Z,0
2018-06-11T01:55:00.141Z,0
2018-06-11T01:56:00.690Z,0
2018-06-11T01:57:01.237Z,0
2018-06-11T01:58:01.789Z,0
2018-06-11T01:59:02.341Z,0
2018-06-11T02:00:02.892Z,0
2018-06-11T02:01:03.442Z,0
2018-06-11T02:02:03.994Z,0
2018-06-11T02:03:04.545Z,0
2018-06-11T02:04:05.095Z,0
2018-06-11T02:05:05.644Z,0
2018-06-11T02:06:06.191Z,0
2018-06-11T02:07:06.745Z,0
2018-06-11T02:08:07.296Z,0
2018-06-11T02:09:07.854Z,0
2018-06-11T02:10:08.403Z,0
2018-06-11T02:11:08.947Z,0
2018-06-11T02:12:09.505Z,0
2018-06-11T02:13:10.051Z,0
2018-06-11T02:14:10.604Z,0
2018-06-11T02:15:11.151Z,0
2018-06-11T02:16:11.701Z,0
2018-06-11T02:17:12.252Z,0
2018-06-11T02:18:12.796Z,0
2018-06-11T02:19:13.342Z,0
2018-06-11T02:20:13.894Z,0
2018-06-11T02:21:14.444Z,0
2018-06-11T02:22:14.991Z,0
2018-06-11T02:23:15.540Z,0
2018-06-11T02:24:16.084Z,0
2018-06-11T02:25:16.634Z,0
2018-06-11T02:26:17.191Z,0
2018-06-11T02:27:17.740Z,0
2018-06-11T02:28:18.288Z,0
2018-06-11T02:29:18.842Z,0
2018-06-11T02:30:19.397Z,0
2018-06-11T02:31:19.945Z,0
2018-06-11T02:32:20.499Z,0
2018-06-11T02:33:21.056Z,0
2018-06-11T02:34:21.609Z,0
2018-06-11T02:35:22.151Z,0
2018-06-11T02:36:22.700Z,0
2018-06-11T02:37:23.251Z,0
2018-06-11T02:38:23.798Z,0
2018-06-11T02:39:24.348Z,0
2018-06-11T02:40:24.898Z,0
2018-06-11T02:41:25.455Z,0
2018-06-11T02:42:25.997Z,0
2018-06-11T02:43:26.541Z,0
2018-06-11T02:44:27.093Z,0
2018-06-11T02:45:27.645Z,0
2018-06-11T02:46:28.190Z,0
2018-06-11T02:47:28.744Z,0
2018-06-11T02:48:29.298Z,0
2018-06-11T02:49:29.844Z,0
2018-06-11T02:50:30.386Z,0
2018-06-11T02:51:30.936Z,0
2018-06-11T02:52:31.486Z,0
2018-06-11T02:53:32.037Z,0
2018-06-11T02:54:32.590Z,0
2018-06-11T02:55:33.137Z,0
2018-06-11T02:56:33.688Z,0
2018-06-11T02:57:34.239Z,0
2018-06-11T02:58:34.791Z,0
2018-06-11T02:59:35.338Z,0
2018-06-11T03:00:35.884Z,0
2018-06-11T03:01:36.436Z,0
2018-06-11T03:02:36.983Z,0
2018-06-11T03:03:37.537Z,0
2018-06-11T03:04:38.082Z,0
2018-06-11T03:05:38.639Z,0
2018-06-11T03:06:39.187Z,0
2018-06-11T03:07:39.744Z,0
2018-06-11T03:08:40.292Z,0
2018-06-11T03:09:40.842Z,5
2018-06-11T03:10:41.393Z,5
2018-06-11T03:11:41.946Z,5
2018-06-11T03:12:42.498Z,5
2018-06-11T03:13:43.053Z,5
2018-06-11T03:14:43.603Z,5
2018-06-11T03:15:44.161Z,5
2018-06-11T03:16:44.711Z,5
2018-06-11T03:17:45.269Z,10
2018-06-11T03:18:45.825Z,10
2018-06-11T03:19:46.377Z,10
2018-06-11T03:20:46.927Z,10
2018-06-11T03:21:47.479Z,10
2018-06-11T03:22:48.034Z,15
2018-06-11T03:23:48.587Z,15
2018-06-11T03:24:49.137Z,15
2018-06-11T03:25:49.686Z,15
2018-06-11T03:26:50.239Z,20
2018-06-11T03:27:50.792Z,20
2018-06-11T03:28:51.345Z,20
2018-06-11T03:29:51.898Z,20
2018-06-11T03:30:52.446Z,25
2018-06-11T03:31:52.999Z,25
2018-06-11T03:32:53.548Z,25
2018-06-11T03:33:54.105Z,25
2018-06-11T03:34:54.659Z,30
2018-06-11T03:35:55.214Z,30
2018-06-11T03:36:55.765Z,30
2018-06-11T03:37:56.316Z,35
2018-06-11T03:38:56.867Z,35
2018-06-11T03:39:57.421Z,40
2018-06-11T03:40:57.977Z,40
2018-06-11T03:41:58.535Z,45
2018-06-11T03:42:59.091Z,45
2018-06-11T03:43:59.646Z,45
2018-06-11T03:45:00.204Z,45
2018-06-11T03:46:00.754Z,45
2018-06-11T03:47:01.309Z,50
2018-06-11T03:48:01.858Z,50
2018-06-11T03:49:02.411Z,55
2018-06-11T03:50:02.965Z,55
2018-06-11T03:51:03.520Z,55
2018-06-11T03:52:04.082Z,60
2018-06-11T03:53:04.642Z,60
2018-06-11T03:54:05.210Z,60
2018-06-11T03:55:05.769Z,65
2018-06-11T03:56:06.337Z,65
2018-06-11T03:57:06.887Z,70
2018-06-11T03:58:07.451Z,70
2018-06-11T03:59:08.012Z,75
2018-06-11T04:00:08.565Z,75
2018-06-11T04:01:09.118Z,80
2018-06-11T04:02:09.677Z,80
2018-06-11T04:03:10.236Z,85
2018-06-11T04:04:10.800Z,85
2018-06-11T04:05:11.361Z,85
2018-06-11T04:06:11.917Z,90
2018-06-11T04:07:12.479Z,90
2018-06-11T04:08:13.041Z,95
2018-06-11T04:09:13.600Z,100
2018-06-11T04:10:14.157Z,100
2018-06-11T04:11:14.759Z,105
2018-06-11T04:12:15.271Z,105
2018-06-11T04:13:15.835Z,110
2018-06-11T04:14:16.400Z,110
2018-06-11T04:15:16.967Z,110
2018-06-11T04:16:17.530Z,115
2018-06-11T04:17:18.093Z,115
2018-06-11T04:18:18.656Z,115
2018-06-11T04:19:19.209Z,120
2018-06-11T04:20:19.766Z,120
2018-06-11T04:21:20.333Z,125
2018-06-11T04:22:20.892Z,130
2018-06-11T04:23:21.448Z,135
2018-06-11T04:24:22.013Z,140
2018-06-11T04:25:22.577Z,145
2018-06-11T04:26:23.134Z,145
2018-06-11T04:27:23.696Z,150
2018-06-11T04:28:24.263Z,155
2018-06-11T04:29:24.821Z,155
2018-06-11T04:30:25.374Z,160
2018-06-11T04:31:25.930Z,160
2018-06-11T04:32:26.483Z,165
2018-06-11T04:33:27.040Z,170
2018-06-11T04:34:27.597Z,170
2018-06-11T04:35:28.148Z,175
2018-06-11T04:36:28.710Z,175
2018-06-11T04:37:29.275Z,185
2018-06-11T04:38:29.837Z,190
2018-06-11T04:39:30.402Z,200
2018-06-11T04:40:30.968Z,205
2018-06-11T04:41:31.530Z,200
2018-06-11T04:42:32.086Z,200
2018-06-11T04:43:32.644Z,200
2018-06-11T04:44:33.198Z,200
2018-06-11T04:45:33.756Z,205
2018-06-11T04:46:34.315Z,210
2018-06-11T04:47:34.870Z,215
2018-06-11T04:48:35.422Z,225
2018-06-11T04:49:35.983Z,235
2018-06-11T04:50:36.545Z,240
2018-06-11T04:51:37.110Z,240
2018-06-11T04:52:37.672Z,245
2018-06-11T04:53:38.225Z,245
2018-06-11T04:54:38.777Z,240
2018-06-11T04:55:39.335Z,245
2018-06-11T04:56:39.890Z,240
2018-06-11T04:57:40.447Z,235
2018-06-11T04:58:41.000Z,230
2018-06-11T04:59:41.556Z,235
2018-06-11T05:00:42.109Z,240
2018-06-11T05:01:42.666Z,240
2018-06-11T05:02:43.224Z,245
2018-06-11T05:03:43.777Z,250
2018-06-11T05:04:44.332Z,255
2018-06-11T05:05:44.888Z,270
2018-06-11T05:06:45.445Z,280
2018-06-11T05:07:46.002Z,290
2018-06-11T05:08:46.556Z,300
2018-06-11T05:09:47.115Z,310
2018-06-11T05:10:47.677Z,315
2018-06-11T05:11:48.233Z,320
2018-06-11T05:12:48.791Z,320
2018-06-11T05:13:49.345Z,315
2018-06-11T05:14:49.902Z,310
2018-06-11T05:15:50.450Z,315
2018-06-11T05:16:51.003Z,320
2018-06-11T05:17:51.561Z,330
2018-06-11T05:18:52.116Z,340
2018-06-11T05:19:52.675Z,350
2018-06-11T05:20:53.233Z,360
2018-06-11T05:21:53.791Z,355
2018-06-11T05:22:54.348Z,345
2018-06-11T05:23:54.902Z,340
2018-06-11T05:24:55.458Z,325
2018-06-11T05:25:56.014Z,320
2018-06-11T05:26:56.567Z,350
2018-06-11T05:27:57.121Z,365
2018-06-11T05:28:57.682Z,390
2018-06-11T05:29:58.238Z,415
2018-06-11T05:30:58.796Z,425
2018-06-11T05:31:59.358Z,405
2018-06-11T05:32:59.921Z,410
2018-06-11T05:34:00.473Z,425
2018-06-11T05:35:01.032Z,425
2018-06-11T05:36:01.587Z,445
2018-06-11T05:37:02.146Z,440
2018-06-11T05:38:02.784Z,455
2018-06-11T05:39:03.311Z,475
2018-06-11T05:40:03.871Z,465
2018-06-11T05:41:04.429Z,485
2018-06-11T05:42:04.989Z,455
2018-06-11T05:43:05.543Z,450
2018-06-11T05:44:06.103Z,415
2018-06-11T05:45:06.665Z,395
2018-06-11T05:46:07.225Z,415
2018-06-11T05:47:07.780Z,430
2018-06-11T05:48:08.337Z,450
2018-06-11T05:49:08.887Z,470
2018-06-11T05:50:09.443Z,505
2018-06-11T05:51:10.004Z,545
2018-06-11T05:52:10.565Z,570
2018-06-11T05:53:11.129Z,525
2018-06-11T05:54:11.689Z,520
2018-06-11T05:55:12.254Z,560
2018-06-11T05:56:12.815Z,565
2018-06-11T05:57:13.379Z,560
2018-06-11T05:58:13.938Z,595
2018-06-11T05:59:14.494Z,590
2018-06-11T06:00:15.060Z,580
2018-06-11T06:01:15.625Z,560
2018-06-11T06:02:16.186Z,570
2018-06-11T06:03:16.745Z,650
2018-06-11T06:04:17.309Z,680
2018-06-11T06:05:17.873Z,640
2018-06-11T06:06:18.433Z,640
2018-06-11T06:07:18.996Z,560
2018-06-11T06:08:19.560Z,525
2018-06-11T06:09:20.137Z,500
2018-06-11T06:10:20.689Z,545
2018-06-11T06:11:21.253Z,565
2018-06-11T06:12:21.816Z,575
2018-06-11T06:13:22.382Z,575
2018-06-11T06:14:22.938Z,590
2018-06-11T06:15:23.503Z,675
2018-06-11T06:16:24.069Z,645
2018-06-11T06:17:24.638Z,595
2018-06-11T06:18:25.201Z,625
2018-06-11T06:19:25.759Z,675
2018-06-11T06:20:26.322Z,730
2018-06-11T06:21:26.885Z,745
2018-06-11T06:22:27.451Z,760
2018-06-11T06:23:28.014Z,800
2018-06-11T06:24:28.583Z,820
2018-06-11T06:25:29.145Z,780
2018-06-11T06:26:29.710Z,625
2018-06-11T06:27:30.283Z,630
2018-06-11T06:28:30.844Z,725
2018-06-11T06:29:31.407Z,770
2018-06-11T06:30:31.974Z,740
2018-06-11T06:31:32.540Z,675
2018-06-11T06:32:33.105Z,940
2018-06-11T06:33:33.671Z,800
2018-06-11T06:34:34.330Z,950
2018-06-11T06:35:34.792Z,980
2018-06-11T06:36:35.362Z,955
2018-06-11T06:37:35.927Z,830
2018-06-11T06:38:36.489Z,730
2018-06-11T06:39:37.074Z,755
2018-06-11T06:40:37.638Z,775
2018-06-11T06:41:38.197Z,825
2018-06-11T06:42:38.755Z,845
2018-06-11T06:43:39.325Z,955
2018-06-11T06:44:39.892Z,985
2018-06-11T06:45:40.453Z,995
2018-06-11T06:46:41.018Z,1190
2018-06-11T06:47:41.588Z,1095
2018-06-11T06:48:42.154Z,875
2018-06-11T06:49:42.724Z,870
2018-06-11T06:50:43.290Z,895
2018-06-11T06:51:43.859Z,780
2018-06-11T06:52:44.427Z,765
2018-06-11T06:53:44.993Z,805
2018-06-11T06:54:45.549Z,785
2018-06-11T06:55:46.110Z,805
2018-06-11T06:56:46.678Z,840
2018-06-11T06:57:47.245Z,840
2018-06-11T06:58:47.812Z,805
2018-06-11T06:59:48.373Z,805
2018-06-11T07:00:48.940Z,820
2018-06-11T07:01:49.563Z,785
2018-06-11T07:02:50.068Z,795
2018-06-11T07:03:50.635Z,985
2018-06-11T07:04:51.205Z,940
2018-06-11T07:05:51.772Z,1085
2018-06-11T07:06:52.345Z,1130
2018-06-11T07:07:52.911Z,985
2018-06-11T07:08:53.481Z,1160
2018-06-11T07:09:54.051Z,1345
2018-06-11T07:10:54.617Z,1360
2018-06-11T07:11:55.189Z,1390
2018-06-11T07:12:55.749Z,1360
2018-06-11T07:13:56.318Z,1390
2018-06-11T07:14:56.890Z,1285
2018-06-11T07:15:57.460Z,1225
2018-06-11T07:16:58.033Z,1190
2018-06-11T07:17:58.600Z,1060
2018-06-11T07:18:59.171Z,960
2018-06-11T07:19:59.741Z,1030
2018-06-11T07:21:00.310Z,915
2018-06-11T07:22:00.875Z,800
2018-06-11T07:23:01.443Z,865
2018-06-11T07:24:02.004Z,895
2018-06-11T07:25:02.573Z,995
2018-06-11T07:26:03.143Z,1035
2018-06-11T07:27:03.769Z,1055
2018-06-11T07:28:04.283Z,990
2018-06-11T07:29:04.848Z,940
2018-06-11T07:30:05.416Z,1020
2018-06-11T07:31:05.984Z,1010
2018-06-11T07:32:06.547Z,1025
2018-06-11T07:33:07.115Z,1060
2018-06-11T07:34:07.678Z,1070
2018-06-11T07:35:08.252Z,1155
2018-06-11T07:36:08.816Z,1220
2018-06-11T07:37:09.384Z,1335
2018-06-11T07:38:09.948Z,1340
2018-06-11T07:39:10.515Z,1410
2018-06-11T07:40:11.083Z,1475
2018-06-11T07:41:11.646Z,1525
2018-06-11T07:42:12.210Z,1475
2018-06-11T07:43:12.773Z,1485
2018-06-11T07:44:13.339Z,1485
2018-06-11T07:45:13.940Z,1465
2018-06-11T07:46:14.477Z,1500
2018-06-11T07:47:15.043Z,1475
2018-06-11T07:48:15.613Z,1335
2018-06-11T07:49:16.179Z,1455
2018-06-11T07:50:16.750Z,1545
2018-06-11T07:51:17.323Z,1580
2018-06-11T07:52:17.897Z,1510
2018-06-11T07:53:18.463Z,1125
2018-06-11T07:54:19.040Z,1235
2018-06-11T07:55:19.604Z,1445
2018-06-11T07:56:20.170Z,1285
2018-06-11T07:57:20.741Z,1140
2018-06-11T07:58:21.317Z,1045
2018-06-11T07:59:21.883Z,1225
2018-06-11T08:00:22.456Z,1635
2018-06-11T08:01:23.030Z,1645
2018-06-11T08:02:23.591Z,1675
2018-06-11T08:03:24.164Z,1615
2018-06-11T08:04:24.734Z,1610
2018-06-11T08:05:25.306Z,1715
2018-06-11T08:06:25.886Z,1765
2018-06-11T08:07:26.495Z,1775
2018-06-11T08:08:27.025Z,1665
2018-06-11T08:09:27.600Z,1240
2018-06-11T08:10:28.172Z,1060
2018-06-11T08:11:28.743Z,900
2018-06-11T08:12:29.314Z,845
2018-06-11T08:13:29.967Z,820
2018-06-11T08:14:30.449Z,865
2018-06-11T08:15:31.019Z,1110
2018-06-11T08:16:31.591Z,1020
2018-06-11T08:17:32.158Z,905
2018-06-11T08:18:32.732Z,815
2018-06-11T08:19:33.301Z,760
2018-06-11T08:20:33.867Z,760
2018-06-11T08:21:34.436Z,785
2018-06-11T08:22:35.003Z,810
2018-06-11T08:23:35.572Z,835
2018-06-11T08:24:36.138Z,860
2018-06-11T08:25:36.707Z,950
2018-06-11T08:26:37.276Z,1065
2018-06-11T08:27:37.856Z,1150
2018-06-11T08:28:38.414Z,1455
2018-06-11T08:29:38.979Z,1445
2018-06-11T08:30:39.549Z,1450
2018-06-11T08:31:40.116Z,1320
2018-06-11T08:32:40.683Z,1170
2018-06-11T08:33:41.253Z,1825
2018-06-11T08:34:41.816Z,1990
2018-06-11T08:35:42.383Z,1560
2018-06-11T08:36:42.953Z,1450
2018-06-11T08:37:43.522Z,1270
2018-06-11T08:38:44.086Z,1100
2018-06-11T08:39:44.653Z,1100
2018-06-11T08:40:45.218Z,1185
2018-06-11T08:41:45.793Z,1080
2018-06-11T08:42:46.365Z,1225
2018-06-11T08:43:46.932Z,1100
2018-06-11T08:44:47.496Z,1405
2018-06-11T08:45:48.068Z,1465
2018-06-11T08:46:48.633Z,1420
2018-06-11T08:47:49.200Z,1455
2018-06-11T08:48:49.768Z,1385
2018-06-11T08:49:50.337Z,1430
2018-06-11T08:50:50.908Z,1460
2018-06-11T08:51:51.480Z,1330
2018-06-11T08:52:52.052Z,1225
2018-06-11T08:53:52.639Z,1150
2018-06-11T08:54:53.207Z,1115
2018-06-11T08:55:53.788Z,1110
2018-06-11T08:56:54.351Z,1155
2018-06-11T08:57:54.923Z,1000
2018-06-11T08:58:55.489Z,845
2018-06-11T08:59:56.107Z,765
2018-06-11T09:00:56.622Z,740
2018-06-11T09:01:57.188Z,740
2018-06-11T09:02:57.749Z,760
2018-06-11T09:03:58.322Z,800
2018-06-11T09:04:58.884Z,885
2018-06-11T09:05:59.446Z,1005
2018-06-11T09:07:00.017Z,1145
2018-06-11T09:08:00.582Z,1475
2018-06-11T09:09:01.151Z,1355
2018-06-11T09:10:01.720Z,1320
2018-06-11T09:11:02.290Z,1300
2018-06-11T09:12:02.853Z,1115
2018-06-11T09:13:03.421Z,1070
2018-06-11T09:14:03.995Z,1045
2018-06-11T09:15:04.552Z,1035
2018-06-11T09:16:05.122Z,1025
2018-06-11T09:17:05.689Z,1060
2018-06-11T09:18:06.266Z,1085
2018-06-11T09:19:06.824Z,1145
2018-06-11T09:20:07.394Z,1265
2018-06-11T09:21:07.963Z,1750
2018-06-11T09:22:08.537Z,1765
2018-06-11T09:23:09.103Z,1835
2018-06-11T09:24:09.684Z,1350
2018-06-11T09:25:10.276Z,2080
2018-06-11T09:26:10.850Z,1910
2018-06-11T09:27:11.435Z,1885
2018-06-11T09:28:12.024Z,2110
2018-06-11T09:29:12.609Z,1875
2018-06-11T09:30:13.177Z,1580
2018-06-11T09:31:13.748Z,1765
2018-06-11T09:32:14.312Z,2395
2018-06-11T09:33:14.881Z,2305
2018-06-11T09:34:15.452Z,2050
2018-06-11T09:35:16.024Z,1535
2018-06-11T09:36:16.593Z,1355
2018-06-11T09:37:17.167Z,1710
2018-06-11T09:38:17.822Z,1795
2018-06-11T09:39:18.312Z,1690
2018-06-11T09:40:18.886Z,1645
2018-06-11T09:41:19.464Z,1675
2018-06-11T09:42:20.042Z,2185
2018-06-11T09:43:20.622Z,2645
2018-06-11T09:44:21.198Z,1610
2018-06-11T09:45:21.764Z,1800
2018-06-11T09:46:22.451Z,2795
2018-06-11T09:47:23.041Z,2435
2018-06-11T09:48:23.602Z,2430
2018-06-11T09:49:24.175Z,2545
2018-06-11T09:50:24.752Z,1905
2018-06-11T09:51:25.342Z,2445
2018-06-11T09:52:25.917Z,1740
2018-06-11T09:53:26.485Z,1960
2018-06-11T09:54:27.051Z,2045
2018-06-11T09:55:27.625Z,2335
2018-06-11T09:56:28.192Z,1940
2018-06-11T09:57:28.768Z,2805
2018-06-11T09:58:29.349Z,1945
2018-06-11T09:59:29.923Z,1635
2018-06-11T10:00:30.502Z,1795
2018-06-11T10:01:31.075Z,2100
2018-06-11T10:02:31.666Z,1840
2018-06-11T10:03:32.233Z,2145
2018-06-11T10:04:32.815Z,2745
2018-06-11T10:05:33.398Z,2745
2018-06-11T10:06:33.972Z,2445
2018-06-11T10:07:34.544Z,2755
2018-06-11T10:08:35.117Z,2685
2018-06-11T10:09:35.685Z,2375
2018-06-11T10:10:36.263Z,2535
2018-06-11T10:11:36.835Z,2640
2018-06-11T10:12:37.409Z,2565
2018-06-11T10:13:38.004Z,2635
2018-06-11T10:14:38.562Z,2715
2018-06-11T10:15:39.141Z,2690
2018-06-11T10:16:39.708Z,2625
2018-06-11T10:17:40.277Z,2765
2018-06-11T10:18:40.856Z,2600
2018-06-11T10:19:41.475Z,1855
2018-06-11T10:20:42.047Z,1915
2018-06-11T10:21:42.622Z,1800
2018-06-11T10:22:43.190Z,1905
2018-06-11T10:23:43.758Z,1730
2018-06-11T10:24:44.328Z,1895
2018-06-11T10:25:44.916Z,1715
2018-06-11T10:26:45.512Z,2540
2018-06-11T10:27:46.082Z,1590
2018-06-11T10:28:46.647Z,1430
2018-06-11T10:29:47.214Z,1485
2018-06-11T10:30:47.795Z,1520
2018-06-11T10:31:48.395Z,1955
2018-06-11T10:32:48.977Z,2210
2018-06-11T10:33:49.542Z,2230
2018-06-11T10:34:50.125Z,2040
2018-06-11T10:35:50.703Z,2000
2018-06-11T10:36:51.288Z,2540
2018-06-11T10:37:51.862Z,2375
2018-06-11T10:38:52.459Z,1870
2018-06-11T10:39:53.176Z,2870
2018-06-11T10:40:53.756Z,2050
2018-06-11T10:41:54.333Z,2090
2018-06-11T10:42:54.905Z,1610
2018-06-11T10:43:55.482Z,1575
2018-06-11T10:44:56.054Z,2055
2018-06-11T10:45:56.666Z,1815
2018-06-11T10:46:57.256Z,1740
2018-06-11T10:47:57.864Z,1730
2018-06-11T10:48:58.473Z,1615
2018-06-11T10:49:59.087Z,1845
2018-06-11T10:50:59.701Z,1900
2018-06-11T10:52:00.295Z,2505
2018-06-11T10:53:00.878Z,2565
2018-06-11T10:54:01.461Z,2540
2018-06-11T10:55:02.039Z,2500
2018-06-11T10:56:02.614Z,2385
2018-06-11T10:57:03.189Z,2220
2018-06-11T10:58:03.766Z,2515
2018-06-11T10:59:04.333Z,2330
2018-06-11T11:00:04.909Z,2480
2018-06-11T11:01:05.486Z,2495
2018-06-11T11:02:06.052Z,2510
2018-06-11T11:03:06.638Z,2545
2018-06-11T11:04:07.239Z,2545
2018-06-11T11:05:07.838Z,2545
2018-06-11T11:06:08.410Z,2560
2018-06-11T11:07:08.978Z,2580
2018-06-11T11:08:09.562Z,2625
2018-06-11T11:09:10.132Z,2525
2018-06-11T11:10:10.709Z,2630
2018-06-11T11:12:26.736Z,2600
2018-06-11T11:13:27.306Z,2700
2018-06-11T11:14:27.912Z,2770
2018-06-11T11:15:28.440Z,2620
2018-06-11T11:16:29.016Z,2665
2018-06-11T11:17:29.592Z,2670
2018-06-11T11:18:30.179Z,2720
2018-06-11T11:19:30.747Z,2735
2018-06-11T11:20:31.319Z,2685
2018-06-11T11:21:31.892Z,2480
2018-06-11T11:22:32.467Z,2560
2018-06-11T11:23:33.044Z,2625
2018-06-11T11:24:33.611Z,2560
2018-06-11T11:25:34.191Z,2590
2018-06-11T11:26:34.768Z,2515
2018-06-11T11:27:35.351Z,2285
2018-06-11T11:28:35.930Z,2635
2018-06-11T11:29:36.507Z,2665
2018-06-11T11:30:37.073Z,2700
2018-06-11T11:31:37.673Z,2610
2018-06-11T11:32:38.231Z,2650
2018-06-11T11:33:38.827Z,2630
2018-06-11T11:34:39.383Z,2680
2018-06-11T11:35:39.955Z,2745
2018-06-11T11:36:40.532Z,2755
2018-06-11T11:37:41.109Z,2150
2018-06-11T11:38:41.695Z,1955
2018-06-11T11:39:42.264Z,1995
2018-06-11T11:40:42.836Z,2460
2018-06-11T11:41:43.408Z,2610
2018-06-11T11:42:43.980Z,2520
2018-06-11T11:43:44.559Z,2865
2018-06-11T11:44:45.134Z,2815
2018-06-11T11:45:45.705Z,2580
2018-06-11T11:46:46.270Z,2755
2018-06-11T11:47:46.845Z,2855
2018-06-11T11:48:47.426Z,3080
2018-06-11T11:49:48.005Z,2880
2018-06-11T11:50:48.579Z,2940
2018-06-11T11:51:49.156Z,2680
2018-06-11T11:52:49.744Z,3060
2018-06-11T11:53:50.315Z,3140
2018-06-11T11:54:50.888Z,3215
2018-06-11T11:55:51.479Z,3265
2018-06-11T11:56:52.053Z,3325
2018-06-11T11:57:52.630Z,3340
2018-06-11T11:58:53.212Z,3255
2018-06-11T11:59:53.791Z,3280
2018-06-11T12:00:54.358Z,3310
2018-06-11T12:01:54.934Z,3390
2018-06-11T12:02:55.503Z,3365
2018-06-11T12:03:56.082Z,2730
2018-06-11T12:04:56.662Z,2635
2018-06-11T12:05:57.295Z,2530
2018-06-11T12:06:57.923Z,2360
2018-06-11T12:07:58.533Z,2345
2018-06-11T12:08:59.161Z,1950
2018-06-11T12:09:59.744Z,1945
2018-06-11T12:11:00.403Z,1835
2018-06-11T12:12:01.068Z,1790
2018-06-11T12:13:01.785Z,1705
2018-06-11T12:14:02.473Z,1650
2018-06-11T12:15:03.086Z,1905
2018-06-11T12:16:03.747Z,1910
2018-06-11T12:17:04.391Z,2235
2018-06-11T12:18:05.019Z,2390
2018-06-11T12:19:05.719Z,2325
2018-06-11T12:20:06.292Z,2565
2018-06-11T12:21:06.921Z,2660
2018-06-11T12:22:07.526Z,2400
2018-06-11T12:23:08.158Z,2800
2018-06-11T12:24:08.777Z,2345
2018-06-11T12:25:09.425Z,2285
2018-06-11T12:26:09.949Z,2925
2018-06-11T12:27:10.536Z,2905
2018-06-11T12:28:11.115Z,2805
2018-06-11T12:29:11.682Z,3315
2018-06-11T12:30:12.258Z,3275
2018-06-11T12:31:12.833Z,3290
2018-06-11T12:32:13.408Z,3065
2018-06-11T12:33:14.040Z,3115
2018-06-11T12:34:14.586Z,2710
2018-06-11T12:35:15.150Z,2680
2018-06-11T12:36:15.749Z,2720
2018-06-11T12:37:16.334Z,2315
2018-06-11T12:38:16.910Z,2075
2018-06-11T12:39:17.487Z,2175
2018-06-11T12:40:18.067Z,2630
2018-06-11T12:41:18.653Z,2880
2018-06-11T12:42:19.253Z,2925
2018-06-11T12:43:19.833Z,2700
2018-06-11T12:44:20.404Z,2575
2018-06-11T12:45:20.979Z,2290
2018-06-11T12:46:21.553Z,1910
2018-06-11T12:47:22.142Z,1830
2018-06-11T12:48:22.732Z,1745
2018-06-11T12:49:23.311Z,1615
2018-06-11T12:50:23.899Z,1630
2018-06-11T12:51:24.487Z,1590
2018-06-11T12:52:25.086Z,1585
2018-06-11T12:53:25.663Z,1615
2018-06-11T12:54:26.235Z,1590
2018-06-11T12:55:26.804Z,1570
2018-06-11T12:56:27.382Z,1555
2018-06-11T12:57:27.954Z,1485
2018-06-11T12:58:28.528Z,1405
2018-06-11T12:59:29.103Z,1370
2018-06-11T13:00:29.666Z,1365
2018-06-11T13:01:30.231Z,1360
2018-06-11T13:02:30.794Z,1345
2018-06-11T13:03:31.358Z,1330
2018-06-11T13:04:31.927Z,1360
2018-06-11T13:05:32.497Z,1400
2018-06-11T13:06:33.069Z,1385
2018-06-11T13:07:33.631Z,1395
2018-06-11T13:08:34.196Z,1395
2018-06-11T13:09:34.764Z,1395
2018-06-11T13:10:35.332Z,1370
2018-06-11T13:11:35.910Z,1360
2018-06-11T13:12:36.478Z,1355
2018-06-11T13:13:37.048Z,1345
2018-06-11T13:14:37.610Z,1340
2018-06-11T13:15:38.186Z,1320
2018-06-11T13:16:38.758Z,1305
2018-06-11T13:17:39.334Z,1285
2018-06-11T13:18:39.904Z,1255
2018-06-11T13:19:40.471Z,1230
2018-06-11T13:20:41.042Z,1205
2018-06-11T13:21:41.612Z,1185
2018-06-11T13:22:42.173Z,1165
2018-06-11T13:23:42.741Z,1135
2018-06-11T13:24:43.315Z,1110
2018-06-11T13:25:43.886Z,1095
2018-06-11T13:26:44.455Z,1075
2018-06-11T13:27:45.023Z,1060
2018-06-11T13:28:45.587Z,1055
2018-06-11T13:29:46.156Z,1055
2018-06-11T13:30:46.722Z,1055
2018-06-11T13:31:47.292Z,1060
2018-06-11T13:32:47.862Z,1060
2018-06-11T13:33:48.432Z,1065
2018-06-11T13:34:49.004Z,1065
2018-06-11T13:35:49.568Z,1070
2018-06-11T13:36:50.141Z,1075
2018-06-11T13:37:50.721Z,1085
2018-06-11T13:38:51.289Z,1100
2018-06-11T13:39:51.857Z,1110
2018-06-11T13:40:52.430Z,1120
2018-06-11T13:41:52.997Z,1145
2018-06-11T13:42:53.562Z,1160
2018-06-11T13:43:54.124Z,1160
2018-06-11T13:44:54.694Z,1160
2018-06-11T13:45:55.257Z,1160
2018-06-11T13:46:55.832Z,1170
2018-06-11T13:47:56.408Z,1165
2018-06-11T13:48:56.969Z,1150
2018-06-11T13:49:57.542Z,1140
2018-06-11T13:50:58.105Z,1125
2018-06-11T13:51:58.675Z,1115
2018-06-11T13:52:59.244Z,1095
2018-06-11T13:53:59.809Z,1080
2018-06-11T13:55:00.373Z,1080
2018-06-11T13:56:00.936Z,1080
2018-06-11T13:57:01.544Z,1080
2018-06-11T13:58:02.070Z,1090